sensor_id;sensor_type;location;lat;lon;timestamp;pressure;altitude;pressure_sealevel;temperature;humidity
36834;BME280;48003;52.084;5.224;2023-05-09T00:01:12;101812.0;;;18.52;76.66
36834;BME280;48003;52.084;5.224;2023-05-09T00:04:24;101805.0;;;18.54;76.47
36834;BME280;48003;52.084;5.224;2023-05-09T00:06:00;101806.0;;;18.57;76.33
36834;BME280;48003;52.084;5.224;2023-05-09T00:07:36;101801.0;;;18.52;76.69
36834;BME280;48003;52.084;5.224;2023-05-09T00:10:48;101803.0;;;18.46;76.94
36834;BME280;48003;52.084;5.224;2023-05-09T00:12:25;101803.0;;;18.38;77.37
36834;BME280;48003;52.084;5.224;2023-05-09T00:14:02;101801.0;;;18.46;77.02
36834;BME280;48003;52.084;5.224;2023-05-09T00:15:39;101798.0;;;18.45;76.83
36834;BME280;48003;52.084;5.224;2023-05-09T00:18:51;101802.0;;;18.34;77.03
36834;BME280;48003;52.084;5.224;2023-05-09T00:20:27;101794.0;;;18.41;77.03
36834;BME280;48003;52.084;5.224;2023-05-09T00:22:03;101793.0;;;18.41;77.05
36834;BME280;48003;52.084;5.224;2023-05-09T00:25:16;101798.0;;;18.34;77.31
36834;BME280;48003;52.084;5.224;2023-05-09T00:26:52;101805.0;;;18.34;77.36
36834;BME280;48003;52.084;5.224;2023-05-09T00:28:28;101805.0;;;18.34;77.39
36834;BME280;48003;52.084;5.224;2023-05-09T00:31:41;101797.0;;;18.38;77.2
36834;BME280;48003;52.084;5.224;2023-05-09T00:33:18;101795.0;;;18.39;77.23
36834;BME280;48003;52.084;5.224;2023-05-09T00:34:54;101795.0;;;18.53;76.8
36834;BME280;48003;52.084;5.224;2023-05-09T00:36:31;101789.0;;;18.52;76.8
36834;BME280;48003;52.084;5.224;2023-05-09T00:39:43;101783.0;;;18.48;76.91
36834;BME280;48003;52.084;5.224;2023-05-09T00:41:19;101790.0;;;18.45;77.13
36834;BME280;48003;52.084;5.224;2023-05-09T00:42:57;101786.0;;;18.46;77.14
36834;BME280;48003;52.084;5.224;2023-05-09T00:46:10;101785.0;;;18.36;77.33
36834;BME280;48003;52.084;5.224;2023-05-09T00:47:46;101780.0;;;18.34;77.72
36834;BME280;48003;52.084;5.224;2023-05-09T00:49:22;101780.0;;;18.34;77.94
36834;BME280;48003;52.084;5.224;2023-05-09T00:52:34;101782.0;;;18.41;77.52
36834;BME280;48003;52.084;5.224;2023-05-09T00:54:11;101780.0;;;18.41;77.41
36834;BME280;48003;52.084;5.224;2023-05-09T00:55:47;101776.0;;;18.45;77.33
36834;BME280;48003;52.084;5.224;2023-05-09T00:57:24;101776.0;;;18.41;77.44
36834;BME280;48003;52.084;5.224;2023-05-09T01:00:36;101767.0;;;18.38;77.61
36834;BME280;48003;52.084;5.224;2023-05-09T01:02:12;101766.0;;;18.34;77.5
36834;BME280;48003;52.084;5.224;2023-05-09T01:03:48;101759.0;;;18.34;77.61
36834;BME280;48003;52.084;5.224;2023-05-09T01:07:16;101755.0;;;18.3;77.8
36834;BME280;48003;52.084;5.224;2023-05-09T01:09:01;101755.0;;;18.43;77.56
36834;BME280;48003;52.084;5.224;2023-05-09T01:10:43;101746.0;;;18.41;77.47
36834;BME280;48003;52.084;5.224;2023-05-09T01:12:35;101741.0;;;18.36;77.5
36834;BME280;48003;52.084;5.224;2023-05-09T01:14:24;101741.0;;;18.36;77.58
36834;BME280;48003;52.084;5.224;2023-05-09T01:18:05;101740.0;;;18.34;77.55
36834;BME280;48003;52.084;5.224;2023-05-09T01:19:56;101738.0;;;18.32;77.8
36834;BME280;48003;52.084;5.224;2023-05-09T01:21:39;101736.0;;;18.28;77.77
36834;BME280;48003;52.084;5.224;2023-05-09T01:23:38;101738.0;;;18.34;77.52
36834;BME280;48003;52.084;5.224;2023-05-09T01:27:16;101731.0;;;18.3;77.61
36834;BME280;48003;52.084;5.224;2023-05-09T01:29:30;101726.0;;;18.28;77.77
36834;BME280;48003;52.084;5.224;2023-05-09T01:31:08;101720.0;;;18.25;77.98
36834;BME280;48003;52.084;5.224;2023-05-09T01:34:25;101714.0;;;18.32;77.91
36834;BME280;48003;52.084;5.224;2023-05-09T01:36:07;101714.0;;;18.27;78.09
36834;BME280;48003;52.084;5.224;2023-05-09T01:37:48;101720.0;;;18.25;78.03
36834;BME280;48003;52.084;5.224;2023-05-09T01:39:27;101721.0;;;18.18;78.06
36834;BME280;48003;52.084;5.224;2023-05-09T01:42:47;101720.0;;;18.21;78.11
36834;BME280;48003;52.084;5.224;2023-05-09T01:44:30;101720.0;;;18.18;78.2
36834;BME280;48003;52.084;5.224;2023-05-09T01:46:16;101719.0;;;18.07;78.36
36834;BME280;48003;52.084;5.224;2023-05-09T01:47:55;101712.0;;;18.25;77.83
36834;BME280;48003;52.084;5.224;2023-05-09T01:51:13;101705.0;;;18.22;77.98
36834;BME280;48003;52.084;5.224;2023-05-09T01:52:52;101705.0;;;18.18;78.16
36834;BME280;48003;52.084;5.224;2023-05-09T01:54:31;101705.0;;;18.21;78.3
36834;BME280;48003;52.084;5.224;2023-05-09T01:56:10;101701.0;;;18.2;78.3
36834;BME280;48003;52.084;5.224;2023-05-09T01:59:25;101693.0;;;18.23;78.05
36834;BME280;48003;52.084;5.224;2023-05-09T02:01:03;101694.0;;;18.16;78.3
36834;BME280;48003;52.084;5.224;2023-05-09T02:02:41;101692.0;;;18.09;78.64
36834;BME280;48003;52.084;5.224;2023-05-09T02:05:54;101692.0;;;18.09;78.86
36834;BME280;48003;52.084;5.224;2023-05-09T02:07:31;101688.0;;;18.0;79.08
36834;BME280;48003;52.084;5.224;2023-05-09T02:09:08;101687.0;;;17.95;79.28
36834;BME280;48003;52.084;5.224;2023-05-09T02:10:46;101686.0;;;17.97;79.41
36834;BME280;48003;52.084;5.224;2023-05-09T02:13:58;101685.0;;;18.0;79.33
36834;BME280;48003;52.084;5.224;2023-05-09T02:15:35;101688.0;;;17.93;79.47
36834;BME280;48003;52.084;5.224;2023-05-09T02:17:11;101680.0;;;17.93;79.63
36834;BME280;48003;52.084;5.224;2023-05-09T02:20:23;101685.0;;;17.95;79.39
36834;BME280;48003;52.084;5.224;2023-05-09T02:21:59;101685.0;;;17.97;79.38
36834;BME280;48003;52.084;5.224;2023-05-09T02:23:35;101681.0;;;18.0;79.27
36834;BME280;48003;52.084;5.224;2023-05-09T02:26:49;101681.0;;;18.02;79.03
36834;BME280;48003;52.084;5.224;2023-05-09T02:28:26;101686.0;;;18.06;78.91
36834;BME280;48003;52.084;5.224;2023-05-09T02:30:06;101682.0;;;18.05;78.89
36834;BME280;48003;52.084;5.224;2023-05-09T02:31:44;101680.0;;;18.13;78.58
36834;BME280;48003;52.084;5.224;2023-05-09T02:35:02;101674.0;;;18.2;78.16
36834;BME280;48003;52.084;5.224;2023-05-09T02:36:39;101680.0;;;18.13;78.41
36834;BME280;48003;52.084;5.224;2023-05-09T02:38:16;101677.0;;;18.09;78.39
36834;BME280;48003;52.084;5.224;2023-05-09T02:41:30;101682.0;;;18.03;78.2
36834;BME280;48003;52.084;5.224;2023-05-09T02:43:06;101680.0;;;18.12;78.13
36834;BME280;48003;52.084;5.224;2023-05-09T02:44:42;101677.0;;;18.04;78.37
36834;BME280;48003;52.084;5.224;2023-05-09T02:46:18;101675.0;;;17.93;78.55
36834;BME280;48003;52.084;5.224;2023-05-09T02:49:30;101674.0;;;17.86;78.81
36834;BME280;48003;52.084;5.224;2023-05-09T02:51:06;101669.0;;;18.0;78.48
36834;BME280;48003;52.084;5.224;2023-05-09T02:52:43;101669.0;;;18.07;78.13
36834;BME280;48003;52.084;5.224;2023-05-09T02:55:55;101667.0;;;18.09;78.03
36834;BME280;48003;52.084;5.224;2023-05-09T02:57:31;101662.0;;;18.21;77.58
36834;BME280;48003;52.084;5.224;2023-05-09T02:59:07;101657.0;;;18.16;77.61
36834;BME280;48003;52.084;5.224;2023-05-09T03:02:19;101655.0;;;18.05;78.0
36834;BME280;48003;52.084;5.224;2023-05-09T03:03:55;101651.0;;;18.02;78.31
36834;BME280;48003;52.084;5.224;2023-05-09T03:05:31;101645.0;;;17.89;78.86
36834;BME280;48003;52.084;5.224;2023-05-09T03:07:08;101644.0;;;17.91;78.99
36834;BME280;48003;52.084;5.224;2023-05-09T03:10:20;101641.0;;;18.02;78.59
36834;BME280;48003;52.084;5.224;2023-05-09T03:11:56;101636.0;;;18.0;78.24
36834;BME280;48003;52.084;5.224;2023-05-09T03:13:32;101635.0;;;18.13;77.91
36834;BME280;48003;52.084;5.224;2023-05-09T03:16:44;101631.0;;;18.11;77.83
36834;BME280;48003;52.084;5.224;2023-05-09T03:18:20;101631.0;;;18.11;77.94
36834;BME280;48003;52.084;5.224;2023-05-09T03:19:57;101630.0;;;18.13;77.86
36834;BME280;48003;52.084;5.224;2023-05-09T03:23:09;101628.0;;;18.13;77.53
36834;BME280;48003;52.084;5.224;2023-05-09T03:24:45;101617.0;;;18.09;77.8
36834;BME280;48003;52.084;5.224;2023-05-09T03:26:21;101614.0;;;18.11;77.73
36834;BME280;48003;52.084;5.224;2023-05-09T03:29:33;101607.0;;;17.97;78.36
36834;BME280;48003;52.084;5.224;2023-05-09T03:31:09;101606.0;;;17.98;78.44
36834;BME280;48003;52.084;5.224;2023-05-09T03:32:46;101611.0;;;17.93;78.88
36834;BME280;48003;52.084;5.224;2023-05-09T03:34:22;101610.0;;;17.95;78.69
36834;BME280;48003;52.084;5.224;2023-05-09T03:37:34;101610.0;;;17.93;78.8
36834;BME280;48003;52.084;5.224;2023-05-09T03:39:11;101609.0;;;17.93;78.39
36834;BME280;48003;52.084;5.224;2023-05-09T03:40:47;101603.0;;;17.91;78.23
36834;BME280;48003;52.084;5.224;2023-05-09T03:44:00;101595.0;;;17.97;78.16
36834;BME280;48003;52.084;5.224;2023-05-09T03:45:36;101590.0;;;18.11;77.77
36834;BME280;48003;52.084;5.224;2023-05-09T03:47:13;101591.0;;;18.07;77.8
36834;BME280;48003;52.084;5.224;2023-05-09T03:50:25;101589.0;;;18.04;77.91
36834;BME280;48003;52.084;5.224;2023-05-09T03:52:02;101587.0;;;18.04;77.8
36834;BME280;48003;52.084;5.224;2023-05-09T03:53:38;101587.0;;;17.84;78.44
36834;BME280;48003;52.084;5.224;2023-05-09T03:55:14;101584.0;;;17.96;77.8
36834;BME280;48003;52.084;5.224;2023-05-09T03:58:27;101583.0;;;18.02;77.72
36834;BME280;48003;52.084;5.224;2023-05-09T04:00:04;101580.0;;;18.06;77.58
36834;BME280;48003;52.084;5.224;2023-05-09T04:01:40;101584.0;;;18.13;77.24
36834;BME280;48003;52.084;5.224;2023-05-09T04:04:52;101581.0;;;18.13;77.11
36834;BME280;48003;52.084;5.224;2023-05-09T04:06:28;101576.0;;;17.72;78.27
36834;BME280;48003;52.084;5.224;2023-05-09T04:08:04;101580.0;;;18.07;77.24
36834;BME280;48003;52.084;5.224;2023-05-09T04:11:17;101577.0;;;17.46;78.98
36834;BME280;48003;52.084;5.224;2023-05-09T04:12:53;101575.0;;;17.82;78.02
36834;BME280;48003;52.084;5.224;2023-05-09T04:14:29;101576.0;;;17.93;77.73
36834;BME280;48003;52.084;5.224;2023-05-09T04:17:41;101574.0;;;18.03;77.16
36834;BME280;48003;52.084;5.224;2023-05-09T04:19:17;101574.0;;;17.88;77.33
36834;BME280;48003;52.084;5.224;2023-05-09T04:20:54;101574.0;;;18.0;77.33
36834;BME280;48003;52.084;5.224;2023-05-09T04:22:31;101572.0;;;17.95;77.14
36834;BME280;48003;52.084;5.224;2023-05-09T04:25:43;101572.0;;;17.89;77.47
36834;BME280;48003;52.084;5.224;2023-05-09T04:27:19;101570.0;;;17.95;77.11
36834;BME280;48003;52.084;5.224;2023-05-09T04:28:55;101566.0;;;17.78;77.91
36834;BME280;48003;52.084;5.224;2023-05-09T04:32:07;101564.0;;;17.68;77.97
36834;BME280;48003;52.084;5.224;2023-05-09T04:33:44;101569.0;;;17.7;77.83
36834;BME280;48003;52.084;5.224;2023-05-09T04:35:20;101562.0;;;17.81;77.7
36834;BME280;48003;52.084;5.224;2023-05-09T04:38:32;101559.0;;;17.84;77.52
36834;BME280;48003;52.084;5.224;2023-05-09T04:40:09;101556.0;;;17.57;78.22
36834;BME280;48003;52.084;5.224;2023-05-09T04:41:45;101555.0;;;17.78;78.06
36834;BME280;48003;52.084;5.224;2023-05-09T04:43:21;101552.0;;;17.59;78.45
36834;BME280;48003;52.084;5.224;2023-05-09T04:46:33;101552.0;;;17.25;79.73
36834;BME280;48003;52.084;5.224;2023-05-09T04:48:09;101548.0;;;17.64;78.72
36834;BME280;48003;52.084;5.224;2023-05-09T04:49:46;101549.0;;;17.61;78.58
36834;BME280;48003;52.084;5.224;2023-05-09T04:52:58;101544.0;;;17.52;79.05
36834;BME280;48003;52.084;5.224;2023-05-09T04:54:34;101536.0;;;17.52;78.86
36834;BME280;48003;52.084;5.224;2023-05-09T04:56:10;101532.0;;;17.62;78.44
36834;BME280;48003;52.084;5.224;2023-05-09T04:59:23;101534.0;;;17.84;77.92
36834;BME280;48003;52.084;5.224;2023-05-09T05:01:00;101532.0;;;17.66;78.53
36834;BME280;48003;52.084;5.224;2023-05-09T05:05:49;101528.0;;;17.84;77.83
36834;BME280;48003;52.084;5.224;2023-05-09T05:07:25;101525.0;;;17.8;78.16
36834;BME280;48003;52.084;5.224;2023-05-09T05:09:01;101526.0;;;17.93;77.66
36834;BME280;48003;52.084;5.224;2023-05-09T05:10:37;101524.0;;;17.72;78.19
36834;BME280;48003;52.084;5.224;2023-05-09T05:13:49;101521.0;;;17.41;79.75
36834;BME280;48003;52.084;5.224;2023-05-09T05:15:25;101514.0;;;17.3;80.55
36834;BME280;48003;52.084;5.224;2023-05-09T05:17:02;101515.0;;;17.3;80.12
36834;BME280;48003;52.084;5.224;2023-05-09T05:20:14;101516.0;;;17.75;78.91
36834;BME280;48003;52.084;5.224;2023-05-09T05:21:50;101512.0;;;17.79;78.62
36834;BME280;48003;52.084;5.224;2023-05-09T05:23:26;101514.0;;;17.61;79.52
36834;BME280;48003;52.084;5.224;2023-05-09T05:26:39;101506.0;;;17.88;78.78
36834;BME280;48003;52.084;5.224;2023-05-09T05:28:15;101503.0;;;17.63;79.33
36834;BME280;48003;52.084;5.224;2023-05-09T05:31:27;101501.0;;;17.53;80.19
36834;BME280;48003;52.084;5.224;2023-05-09T05:34:39;101496.0;;;17.82;78.97
36834;BME280;48003;52.084;5.224;2023-05-09T05:36:15;101495.0;;;17.72;79.09
36834;BME280;48003;52.084;5.224;2023-05-09T05:37:52;101492.0;;;17.86;78.99
36834;BME280;48003;52.084;5.224;2023-05-09T05:41:04;101496.0;;;17.82;78.72
36834;BME280;48003;52.084;5.224;2023-05-09T05:42:40;101493.0;;;17.68;79.13
36834;BME280;48003;52.084;5.224;2023-05-09T05:44:16;101494.0;;;17.5;79.95
36834;BME280;48003;52.084;5.224;2023-05-09T05:47:30;101490.0;;;17.71;79.47
36834;BME280;48003;52.084;5.224;2023-05-09T05:49:06;101488.0;;;17.56;79.55
36834;BME280;48003;52.084;5.224;2023-05-09T05:50:42;101487.0;;;17.56;79.8
36834;BME280;48003;52.084;5.224;2023-05-09T05:53:55;101484.0;;;17.61;79.23
36834;BME280;48003;52.084;5.224;2023-05-09T05:55:31;101482.0;;;17.75;79.11
36834;BME280;48003;52.084;5.224;2023-05-09T05:57:07;101480.0;;;17.79;79.38
36834;BME280;48003;52.084;5.224;2023-05-09T05:58:43;101478.0;;;17.95;78.38
36834;BME280;48003;52.084;5.224;2023-05-09T06:01:55;101477.0;;;18.27;77.41
36834;BME280;48003;52.084;5.224;2023-05-09T06:03:31;101476.0;;;18.18;77.83
36834;BME280;48003;52.084;5.224;2023-05-09T06:05:08;101473.0;;;18.27;77.49
36834;BME280;48003;52.084;5.224;2023-05-09T06:08:21;101473.0;;;17.91;78.72
36834;BME280;48003;52.084;5.224;2023-05-09T06:09:57;101467.0;;;17.84;79.03
36834;BME280;48003;52.084;5.224;2023-05-09T06:11:33;101463.0;;;17.86;78.97
36834;BME280;48003;52.084;5.224;2023-05-09T06:14:45;101466.0;;;18.13;77.87
36834;BME280;48003;52.084;5.224;2023-05-09T06:16:21;101462.0;;;18.25;77.28
36834;BME280;48003;52.084;5.224;2023-05-09T06:17:58;101460.0;;;18.06;78.0
36834;BME280;48003;52.084;5.224;2023-05-09T06:19:35;101453.0;;;18.27;77.27
36834;BME280;48003;52.084;5.224;2023-05-09T06:22:47;101450.0;;;18.09;77.2
36834;BME280;48003;52.084;5.224;2023-05-09T06:24:23;101455.0;;;18.11;77.58
36834;BME280;48003;52.084;5.224;2023-05-09T06:25:59;101452.0;;;18.06;77.69
36834;BME280;48003;52.084;5.224;2023-05-09T06:29:12;101452.0;;;18.32;77.16
36834;BME280;48003;52.084;5.224;2023-05-09T06:30:49;101455.0;;;18.48;76.69
36834;BME280;48003;52.084;5.224;2023-05-09T06:32:25;101455.0;;;18.03;78.09
36834;BME280;48003;52.084;5.224;2023-05-09T06:35:37;101452.0;;;18.11;78.41
36834;BME280;48003;52.084;5.224;2023-05-09T06:37:13;101447.0;;;17.95;79.47
36834;BME280;48003;52.084;5.224;2023-05-09T06:38:49;101448.0;;;17.97;79.24
36834;BME280;48003;52.084;5.224;2023-05-09T06:42:03;101448.0;;;18.11;78.61
36834;BME280;48003;52.084;5.224;2023-05-09T06:43:39;101445.0;;;18.18;78.41
36834;BME280;48003;52.084;5.224;2023-05-09T06:45:15;101443.0;;;17.7;80.59
36834;BME280;48003;52.084;5.224;2023-05-09T06:46:51;101440.0;;;17.97;79.74
36834;BME280;48003;52.084;5.224;2023-05-09T06:50:04;101441.0;;;18.13;79.42
36834;BME280;48003;52.084;5.224;2023-05-09T06:51:40;101439.0;;;17.95;79.89
36834;BME280;48003;52.084;5.224;2023-05-09T06:53:16;101436.0;;;17.93;80.14
36834;BME280;48003;52.084;5.224;2023-05-09T06:56:29;101437.0;;;18.02;80.16
36834;BME280;48003;52.084;5.224;2023-05-09T06:58:05;101435.0;;;18.21;79.36
36834;BME280;48003;52.084;5.224;2023-05-09T06:59:41;101438.0;;;18.07;79.78
36834;BME280;48003;52.084;5.224;2023-05-09T07:02:53;101438.0;;;17.88;80.88
36834;BME280;48003;52.084;5.224;2023-05-09T07:04:29;101433.0;;;17.96;80.61
36834;BME280;48003;52.084;5.224;2023-05-09T07:06:05;101430.0;;;18.03;80.69
36834;BME280;48003;52.084;5.224;2023-05-09T07:07:41;101427.0;;;17.96;81.56
36834;BME280;48003;52.084;5.224;2023-05-09T07:10:53;101430.0;;;17.78;82.57
36834;BME280;48003;52.084;5.224;2023-05-09T07:12:30;101425.0;;;17.68;82.72
36834;BME280;48003;52.084;5.224;2023-05-09T07:14:05;101423.0;;;17.98;81.45
36834;BME280;48003;52.084;5.224;2023-05-09T07:17:17;101418.0;;;17.61;83.42
36834;BME280;48003;52.084;5.224;2023-05-09T07:18:54;101417.0;;;17.68;83.2
36834;BME280;48003;52.084;5.224;2023-05-09T07:20:30;101416.0;;;17.71;83.45
36834;BME280;48003;52.084;5.224;2023-05-09T07:23:42;101412.0;;;17.68;83.55
36834;BME280;48003;52.084;5.224;2023-05-09T07:25:18;101410.0;;;18.18;81.52
36834;BME280;48003;52.084;5.224;2023-05-09T07:26:54;101406.0;;;18.09;81.25
36834;BME280;48003;52.084;5.224;2023-05-09T07:30:07;101409.0;;;17.7;83.0
36834;BME280;48003;52.084;5.224;2023-05-09T07:31:44;101408.0;;;17.89;83.11
36834;BME280;48003;52.084;5.224;2023-05-09T07:33:20;101406.0;;;17.68;83.92
36834;BME280;48003;52.084;5.224;2023-05-09T07:34:56;101405.0;;;17.61;84.75
36834;BME280;48003;52.084;5.224;2023-05-09T07:38:08;101403.0;;;17.34;84.74
36834;BME280;48003;52.084;5.224;2023-05-09T07:39:44;101402.0;;;17.36;85.58
36834;BME280;48003;52.084;5.224;2023-05-09T07:41:20;101406.0;;;17.62;84.87
36834;BME280;48003;52.084;5.224;2023-05-09T07:44:33;101399.0;;;17.45;85.42
36834;BME280;48003;52.084;5.224;2023-05-09T07:46:09;101403.0;;;17.5;84.48
36834;BME280;48003;52.084;5.224;2023-05-09T07:47:45;101399.0;;;17.54;85.05
36834;BME280;48003;52.084;5.224;2023-05-09T07:50:57;101396.0;;;17.59;85.05
36834;BME280;48003;52.084;5.224;2023-05-09T07:52:34;101396.0;;;17.62;84.08
36834;BME280;48003;52.084;5.224;2023-05-09T07:54:11;101389.0;;;17.23;85.95
36834;BME280;48003;52.084;5.224;2023-05-09T07:55:47;101385.0;;;17.18;87.48
36834;BME280;48003;52.084;5.224;2023-05-09T07:58:59;101386.0;;;17.5;85.75
36834;BME280;48003;52.084;5.224;2023-05-09T08:00:35;101381.0;;;17.21;86.92
36834;BME280;48003;52.084;5.224;2023-05-09T08:02:11;101378.0;;;16.84;89.11
36834;BME280;48003;52.084;5.224;2023-05-09T08:05:24;101373.0;;;16.71;90.47
36834;BME280;48003;52.084;5.224;2023-05-09T08:07:00;101375.0;;;16.61;90.97
36834;BME280;48003;52.084;5.224;2023-05-09T08:08:37;101367.0;;;16.52;91.71
36834;BME280;48003;52.084;5.224;2023-05-09T08:11:49;101370.0;;;16.66;91.03
36834;BME280;48003;52.084;5.224;2023-05-09T08:13:25;101371.0;;;16.64;91.15
36834;BME280;48003;52.084;5.224;2023-05-09T08:15:01;101357.0;;;16.56;91.63
36834;BME280;48003;52.084;5.224;2023-05-09T08:18:13;101359.0;;;16.48;92.54
36834;BME280;48003;52.084;5.224;2023-05-09T08:19:49;101355.0;;;16.7;91.71
36834;BME280;48003;52.084;5.224;2023-05-09T08:21:26;101352.0;;;16.56;91.87
36834;BME280;48003;52.084;5.224;2023-05-09T08:23:02;101351.0;;;16.64;92.12
36834;BME280;48003;52.084;5.224;2023-05-09T08:26:14;101345.0;;;17.05;90.27
36834;BME280;48003;52.084;5.224;2023-05-09T08:27:50;101344.0;;;16.68;91.98
36834;BME280;48003;52.084;5.224;2023-05-09T08:29:26;101340.0;;;16.88;91.05
36834;BME280;48003;52.084;5.224;2023-05-09T08:32:39;101336.0;;;16.78;91.4
36834;BME280;48003;52.084;5.224;2023-05-09T08:34:15;101334.0;;;16.61;92.86
36834;BME280;48003;52.084;5.224;2023-05-09T08:35:51;101330.0;;;16.63;93.3
36834;BME280;48003;52.084;5.224;2023-05-09T08:39:04;101331.0;;;16.62;92.43
36834;BME280;48003;52.084;5.224;2023-05-09T08:40:40;101330.0;;;16.98;91.05
36834;BME280;48003;52.084;5.224;2023-05-09T08:42:16;101323.0;;;16.66;92.65
36834;BME280;48003;52.084;5.224;2023-05-09T08:43:54;101324.0;;;16.59;92.77
36834;BME280;48003;52.084;5.224;2023-05-09T08:47:15;101321.0;;;16.77;91.74
36834;BME280;48003;52.084;5.224;2023-05-09T08:48:51;101317.0;;;16.84;91.59
36834;BME280;48003;52.084;5.224;2023-05-09T08:50:28;101321.0;;;16.71;91.87
36834;BME280;48003;52.084;5.224;2023-05-09T08:53:41;101316.0;;;17.11;89.94
36834;BME280;48003;52.084;5.224;2023-05-09T08:55:18;101313.0;;;16.77;91.48
36834;BME280;48003;52.084;5.224;2023-05-09T08:56:54;101309.0;;;16.57;93.34
36834;BME280;48003;52.084;5.224;2023-05-09T09:00:08;101307.0;;;16.95;91.92
36834;BME280;48003;52.084;5.224;2023-05-09T09:01:47;101309.0;;;17.02;91.15
36834;BME280;48003;52.084;5.224;2023-05-09T09:03:24;101307.0;;;17.21;90.07
36834;BME280;48003;52.084;5.224;2023-05-09T09:05:00;101300.0;;;16.62;92.37
36834;BME280;48003;52.084;5.224;2023-05-09T09:08:15;101302.0;;;16.71;92.24
36834;BME280;48003;52.084;5.224;2023-05-09T09:09:53;101300.0;;;16.59;93.89
36834;BME280;48003;52.084;5.224;2023-05-09T09:11:31;101301.0;;;17.0;91.71
36834;BME280;48003;52.084;5.224;2023-05-09T09:14:49;101302.0;;;16.59;93.81
36834;BME280;48003;52.084;5.224;2023-05-09T09:16:28;101301.0;;;16.77;93.32
36834;BME280;48003;52.084;5.224;2023-05-09T09:18:07;101297.0;;;16.84;92.95
36834;BME280;48003;52.084;5.224;2023-05-09T09:19:44;101297.0;;;17.03;92.06
36834;BME280;48003;52.084;5.224;2023-05-09T09:23:02;101289.0;;;16.62;94.11
36834;BME280;48003;52.084;5.224;2023-05-09T09:24:39;101294.0;;;16.95;92.68
36834;BME280;48003;52.084;5.224;2023-05-09T09:26:15;101292.0;;;16.98;92.69
36834;BME280;48003;52.084;5.224;2023-05-09T09:27:51;101287.0;;;17.06;90.97
36834;BME280;48003;52.084;5.224;2023-05-09T09:31:18;101281.0;;;17.02;92.18
36834;BME280;48003;52.084;5.224;2023-05-09T09:32:57;101280.0;;;17.25;91.68
36834;BME280;48003;52.084;5.224;2023-05-09T09:34:35;101281.0;;;16.86;92.85
36834;BME280;48003;52.084;5.224;2023-05-09T09:36:12;101282.0;;;16.72;93.54
36834;BME280;48003;52.084;5.224;2023-05-09T09:39:24;101284.0;;;16.86;93.51
36834;BME280;48003;52.084;5.224;2023-05-09T09:41:00;101277.0;;;16.72;93.62
36834;BME280;48003;52.084;5.224;2023-05-09T09:42:40;101280.0;;;17.02;92.03
36834;BME280;48003;52.084;5.224;2023-05-09T09:45:54;101269.0;;;17.41;90.0
36834;BME280;48003;52.084;5.224;2023-05-09T09:47:31;101272.0;;;17.13;91.68
36834;BME280;48003;52.084;5.224;2023-05-09T09:49:08;101272.0;;;17.11;92.33
36834;BME280;48003;52.084;5.224;2023-05-09T09:52:23;101271.0;;;16.97;92.19
36834;BME280;48003;52.084;5.224;2023-05-09T09:54:00;101270.0;;;17.03;91.44
36834;BME280;48003;52.084;5.224;2023-05-09T09:55:48;101280.0;;;17.21;90.89
36834;BME280;48003;52.084;5.224;2023-05-09T09:57:40;101271.0;;;17.32;90.07
36834;BME280;48003;52.084;5.224;2023-05-09T09:59:17;101272.0;;;16.98;91.68
36834;BME280;48003;52.084;5.224;2023-05-09T10:02:49;101268.0;;;17.16;91.9
36834;BME280;48003;52.084;5.224;2023-05-09T10:04:28;101272.0;;;17.03;92.34
36834;BME280;48003;52.084;5.224;2023-05-09T10:06:08;101263.0;;;16.86;92.32
36834;BME280;48003;52.084;5.224;2023-05-09T10:07:49;101267.0;;;16.87;92.41
36834;BME280;48003;52.084;5.224;2023-05-09T10:11:02;101262.0;;;16.93;92.28
36834;BME280;48003;52.084;5.224;2023-05-09T10:12:39;101265.0;;;16.72;92.91
36834;BME280;48003;52.084;5.224;2023-05-09T10:14:19;101258.0;;;16.46;94.7
36834;BME280;48003;52.084;5.224;2023-05-09T10:15:56;101255.0;;;16.77;94.57
36834;BME280;48003;52.084;5.224;2023-05-09T10:19:11;101262.0;;;17.09;92.89
36834;BME280;48003;52.084;5.224;2023-05-09T10:20:48;101252.0;;;17.22;91.68
36834;BME280;48003;52.084;5.224;2023-05-09T10:22:24;101253.0;;;17.27;91.6
36834;BME280;48003;52.084;5.224;2023-05-09T10:25:45;101258.0;;;17.16;92.05
36834;BME280;48003;52.084;5.224;2023-05-09T10:27:34;101252.0;;;17.0;91.75
36834;BME280;48003;52.084;5.224;2023-05-09T10:29:11;101253.0;;;16.97;92.59
36834;BME280;48003;52.084;5.224;2023-05-09T10:30:56;101255.0;;;17.0;92.09
36834;BME280;48003;52.084;5.224;2023-05-09T10:34:22;101249.0;;;16.93;92.98
36834;BME280;48003;52.084;5.224;2023-05-09T10:36:01;101246.0;;;17.21;91.78
36834;BME280;48003;52.084;5.224;2023-05-09T10:37:39;101243.0;;;17.5;89.29
36834;BME280;48003;52.084;5.224;2023-05-09T10:39:14;101238.0;;;17.2;91.39
36834;BME280;48003;52.084;5.224;2023-05-09T10:42:30;101232.0;;;17.11;92.24
36834;BME280;48003;52.084;5.224;2023-05-09T10:44:07;101224.0;;;17.28;92.03
36834;BME280;48003;52.084;5.224;2023-05-09T10:45:45;101222.0;;;17.27;91.3
36834;BME280;48003;52.084;5.224;2023-05-09T10:47:22;101215.0;;;17.77;89.3
36834;BME280;48003;52.084;5.224;2023-05-09T10:50:36;101211.0;;;17.5;90.52
36834;BME280;48003;52.084;5.224;2023-05-09T10:52:13;101207.0;;;17.39;91.38
36834;BME280;48003;52.084;5.224;2023-05-09T10:53:50;101210.0;;;17.11;92.5
36834;BME280;48003;52.084;5.224;2023-05-09T10:57:11;101210.0;;;17.27;91.65
36834;BME280;48003;52.084;5.224;2023-05-09T10:58:47;101211.0;;;17.11;92.71
36834;BME280;48003;52.084;5.224;2023-05-09T11:00:24;101206.0;;;17.32;91.54
36834;BME280;48003;52.084;5.224;2023-05-09T11:02:01;101203.0;;;16.91;93.39
36834;BME280;48003;52.084;5.224;2023-05-09T11:05:37;101197.0;;;17.04;93.41
36834;BME280;48003;52.084;5.224;2023-05-09T11:07:22;101193.0;;;17.3;91.77
36834;BME280;48003;52.084;5.224;2023-05-09T11:09:21;101200.0;;;17.22;92.14
36834;BME280;48003;52.084;5.224;2023-05-09T11:11:05;101192.0;;;17.09;93.01
36834;BME280;48003;52.084;5.224;2023-05-09T11:12:59;101190.0;;;17.0;93.55